Etusivu
METAR-TAF:

METAR-TAF

Lentoasemat :

Molden lentoasema

Molde, Norja

Leveyspiiri: 62-45N, Pituuspiiri: 007-16E, korkeus merenpinnasta: 0 m

Tämänhetkinen sää

Tämä raportti tehtiin 22 minuuttia sitten, kello 15.20 UTC
Tuuli 10 kn lännestä/lounaasta
Lämpötila 19°C
Kosteus 68%
Ilmanpaine 1011 hPa
Näkyvyys 10 km tai enemmän
Muutamia pilviä 2500 ft:n korkeudessa
Hajanaisia pilviä 6000 ft:n korkeudessa

METAR: ENML 231520Z 24010KT 9999 FEW025 SCT060 19/13 Q1011

Aika: 17:42 (15:42 UTC)

Sääennuste

Tämä raportti tehtiin 1 tunti ja 42 minuuttia sitten, kello 14.00 UTC
Ennuste voimassa 23. päivästä klo 15 UTC - 23. päivään klo 22 UTC
Tuuli 7 kn lännestä/lounaasta
Näkyvyys 10 km tai enemmän
Muutamia pilviä 1800 ft:n korkeudessa
Hajonneita pilviä 3500 ft:n korkeudessa

TAF: ENML 231400Z 2315/2322 25007KT 9999 FEW018 BKN035

Säähavainnot ja -ennusteet yli 4000 lentoasemalta (METAR- ja TAF-raportit).

Käytössä olevat sääasemat on merkitty karttaan keltaisilla ja punaisilla pisteillä.

Aseta hiiri pisteen päälle nähdäksesi sääaseman nimen.

Klikkaa sitten nähdäksesi säähavainnot ja -ennusteet.

Kartan vaihtaminen: klikkaa mustalla rastilla varustettuja vihreitä pisteitä, niin voit zoomata sisään; viivalla varustettua vihreää pistettä, niin voit zoomata ulos tai vihreitä nuolia, niin pääset viereisille kartoille.


METAR-TAF: